Time;durP1;ratioP1;P1;durP2;ratioP2;P2;SDS_P1;SDS_P2;PMS_P1;PMS_P2;Temp;Humidity;BMP_temperature;BMP_pressure;BME280_temperature;BME280_humidity;BME280_pressure;Samples;Min_cycle;Max_cycle;Signal;HPM_P1;HPM_P2
2021/10/28 00:13:29;;;;;;;23.00;18.75;;;;;;;;;;5094592;28;20051;-81
2021/10/28 00:15:58;;;;;;;26.90;21.30;;;;;;;;;;5094580;28;20012;-83
2021/10/28 00:21:09;;;;;;;24.80;19.92;;;;;;;;;;5094185;28;20051;-80
2021/10/28 00:23:50;;;;;;;25.33;19.80;;;;;;;;;;5094333;28;20487;-78
2021/10/28 00:26:18;;;;;;;27.48;20.50;;;;;;;;;;5094287;28;20031;-80
2021/10/28 00:28:44;;;;;;;23.80;18.42;;;;;;;;;;5094074;28;20039;-77
2021/10/28 00:31:11;;;;;;;25.55;19.70;;;;;;;;;;5094438;28;20099;-80
2021/10/28 00:33:40;;;;;;;23.75;18.95;;;;;;;;;;5094122;28;20028;-79
2021/10/28 00:36:07;;;;;;;22.10;17.85;;;;;;;;;;5094220;28;20024;-77
2021/10/28 00:38:33;;;;;;;20.98;17.73;;;;;;;;;;5094129;28;20127;-77
2021/10/28 00:41:00;;;;;;;22.65;18.38;;;;;;;;;;5094363;28;20120;-77
2021/10/28 00:43:27;;;;;;;22.85;18.17;;;;;;;;;;5094049;28;20031;-79
2021/10/28 00:46:16;;;;;;;25.15;18.65;;;;;;;;;;5094149;28;20492;-79
2021/10/28 00:48:45;;;;;;;20.95;17.55;;;;;;;;;;5093856;28;20379;-78
2021/10/28 00:51:11;;;;;;;21.30;17.42;;;;;;;;;;5093943;28;20483;-78
2021/10/28 00:53:39;;;;;;;23.05;18.02;;;;;;;;;;5093925;28;20470;-81
2021/10/28 00:56:13;;;;;;;23.98;16.85;;;;;;;;;;5093900;28;20028;-82
2021/10/28 00:58:39;;;;;;;20.85;17.00;;;;;;;;;;5093840;28;20378;-81
2021/10/28 01:01:07;;;;;;;24.77;19.27;;;;;;;;;;5093806;28;20034;-79
2021/10/28 01:03:43;;;;;;;;;;;;;;;;;;;;;
2021/10/28 01:06:12;;;;;;;26.33;19.90;;;;;;;;;;5093790;28;20386;-80
2021/10/28 01:09:12;;;;;;;28.60;21.33;;;;;;;;;;5093789;28;20055;-82
2021/10/28 01:11:54;;;;;;;22.83;18.77;;;;;;;;;;5090786;28;20042;-81
2021/10/28 01:14:30;;;;;;;27.13;19.35;;;;;;;;;;5093657;28;20460;-83
2021/10/28 01:17:00;;;;;;;26.45;19.60;;;;;;;;;;5093578;28;20055;-79
2021/10/28 01:19:47;;;;;;;26.40;19.15;;;;;;;;;;5093289;28;20055;-82
2021/10/28 01:22:14;;;;;;;28.52;20.25;;;;;;;;;;5093490;28;20036;-81
2021/10/28 01:24:42;;;;;;;25.20;19.45;;;;;;;;;;5093002;28;20046;-81
2021/10/28 01:27:09;;;;;;;25.23;18.63;;;;;;;;;;5093468;28;20032;-78
2021/10/28 01:29:36;;;;;;;29.55;23.60;;;;;;;;;;5094045;28;20032;-81
2021/10/28 01:32:03;;;;;;;35.00;27.85;;;;;;;;;;5093368;28;20024;-78
2021/10/28 01:34:30;;;;;;;31.95;24.88;;;;;;;;;;5093516;28;20024;-80
2021/10/28 01:36:57;;;;;;;31.27;24.50;;;;;;;;;;5093531;28;20058;-79
2021/10/28 01:39:23;;;;;;;33.58;25.50;;;;;;;;;;5093450;28;20016;-78
2021/10/28 01:41:50;;;;;;;27.45;22.10;;;;;;;;;;5093370;28;20372;-78
2021/10/28 01:44:17;;;;;;;24.90;20.25;;;;;;;;;;5092132;28;20031;-79
2021/10/28 01:46:43;;;;;;;28.25;20.83;;;;;;;;;;5093426;28;20051;-84
2021/10/28 01:49:20;;;;;;;27.95;21.83;;;;;;;;;;5093233;28;20043;-82
2021/10/28 01:51:50;;;;;;;28.23;21.58;;;;;;;;;;5092087;28;20027;-82
2021/10/28 01:54:19;;;;;;;24.48;20.83;;;;;;;;;;5093215;28;20391;-82
2021/10/28 01:56:46;;;;;;;27.90;21.92;;;;;;;;;;5093241;28;20028;-83
2021/10/28 01:59:13;;;;;;;25.60;20.33;;;;;;;;;;5093048;28;20103;-81
2021/10/28 02:01:39;;;;;;;24.40;18.75;;;;;;;;;;5091890;28;20016;-82
2021/10/28 02:04:06;;;;;;;28.38;21.25;;;;;;;;;;5091948;28;20094;-80
2021/10/28 02:06:32;;;;;;;25.08;19.25;;;;;;;;;;5093188;28;20367;-81
2021/10/28 02:08:59;;;;;;;30.40;21.15;;;;;;;;;;5093112;28;20024;-80
2021/10/28 02:11:25;;;;;;;27.85;20.15;;;;;;;;;;5093170;28;20065;-81
2021/10/28 02:13:51;;;;;;;24.73;19.35;;;;;;;;;;5092915;28;20387;-83
2021/10/28 02:16:17;;;;;;;26.45;20.48;;;;;;;;;;5093149;28;20077;-82
2021/10/28 02:18:44;;;;;;;27.88;21.90;;;;;;;;;;5093026;28;20032;-81
2021/10/28 02:21:13;;;;;;;28.35;22.55;;;;;;;;;;5092732;28;20040;-80
2021/10/28 02:23:41;;;;;;;29.30;23.23;;;;;;;;;;5093046;28;20032;-82
2021/10/28 02:26:08;;;;;;;30.15;22.67;;;;;;;;;;5093095;28;20092;-82
2021/10/28 02:28:34;;;;;;;27.30;20.42;;;;;;;;;;5092857;28;20025;-80
2021/10/28 02:31:00;;;;;;;25.88;20.27;;;;;;;;;;5093015;28;20055;-80
2021/10/28 02:33:26;;;;;;;29.33;20.58;;;;;;;;;;5092936;28;20016;-82
2021/10/28 02:35:52;;;;;;;23.27;18.77;;;;;;;;;;5092811;28;20483;-81
2021/10/28 02:38:18;;;;;;;23.88;20.30;;;;;;;;;;5096482;28;20059;-82
2021/10/28 02:40:44;;;;;;;28.00;21.23;;;;;;;;;;5096480;28;20444;-81
2021/10/28 02:43:11;;;;;;;26.52;19.65;;;;;;;;;;5096271;28;20036;-81
2021/10/28 02:45:37;;;;;;;26.85;21.60;;;;;;;;;;5095173;28;20481;-81
2021/10/28 02:48:04;;;;;;;25.15;20.17;;;;;;;;;;5096141;28;20028;-80
2021/10/28 02:50:30;;;;;;;25.98;20.75;;;;;;;;;;5096212;28;20103;-80
2021/10/28 02:52:56;;;;;;;28.48;20.65;;;;;;;;;;5096217;28;20069;-84
2021/10/28 02:55:24;;;;;;;27.50;20.67;;;;;;;;;;5094770;28;20501;-80
2021/10/28 02:57:52;;;;;;;26.92;20.73;;;;;;;;;;5096249;28;20032;-79
2021/10/28 03:00:19;;;;;;;26.75;19.83;;;;;;;;;;5094926;28;20386;-82
2021/10/28 03:02:45;;;;;;;24.83;20.25;;;;;;;;;;5096116;28;20016;-82
2021/10/28 03:05:11;;;;;;;30.83;21.05;;;;;;;;;;5094513;28;20471;-81
2021/10/28 03:07:38;;;;;;;24.10;20.13;;;;;;;;;;5094607;28;20032;-81
2021/10/28 03:10:06;;;;;;;26.10;20.00;;;;;;;;;;5095962;28;20043;-80
2021/10/28 03:12:34;;;;;;;25.50;20.58;;;;;;;;;;5095972;28;20040;-80
2021/10/28 03:15:03;;;;;;;25.92;20.45;;;;;;;;;;5095767;28;20421;-83
2021/10/28 03:28:03;;;;;;;26.92;20.52;;;;;;;;;;5095400;28;20021;-81
2021/10/28 03:30:29;;;;;;;25.27;20.30;;;;;;;;;;5095631;28;20020;-81
2021/10/28 03:32:55;;;;;;;25.92;20.48;;;;;;;;;;5095698;28;20038;-80
2021/10/28 03:35:22;;;;;;;24.83;19.83;;;;;;;;;;5095369;28;20081;-81
2021/10/28 03:37:53;;;;;;;30.85;21.45;;;;;;;;;;5095388;28;20050;-81
2021/10/28 03:40:50;;;;;;;32.28;22.55;;;;;;;;;;5095298;28;20052;-82
2021/10/28 04:07:42;;;;;;;46.60;29.15;;;;;;;;;;5089319;28;20032;-83
2021/10/28 04:29:16;;;;;;;38.80;27.80;;;;;;;;;;5094206;28;20510;-82
2021/10/28 04:31:43;;;;;;;40.40;26.98;;;;;;;;;;5094418;28;20020;-83
2021/10/28 04:34:10;;;;;;;33.50;24.15;;;;;;;;;;5092968;28;20045;-82
2021/10/28 04:36:37;;;;;;;30.67;21.95;;;;;;;;;;5094327;28;20016;-85
2021/10/28 04:39:08;;;;;;;36.50;24.38;;;;;;;;;;5092858;28;20123;-81
2021/10/28 04:41:34;;;;;;;42.28;26.45;;;;;;;;;;5094196;28;20435;-80
2021/10/28 04:44:01;;;;;;;84.38;47.85;;;;;;;;;;5093884;28;20099;-80
2021/10/28 04:46:30;;;;;;;84.50;47.30;;;;;;;;;;5094117;28;20099;-81
2021/10/28 04:49:19;;;;;;;92.78;53.28;;;;;;;;;;5092438;28;20028;-82
2021/10/28 04:51:50;;;;;;;110.55;61.58;;;;;;;;;;5055335;28;20081;-82
2021/10/28 04:54:16;;;;;;;63.80;43.97;;;;;;;;;;5092729;28;20027;-82
2021/10/28 04:56:44;;;;;;;71.55;45.33;;;;;;;;;;5092619;28;20016;-84
2021/10/28 04:59:11;;;;;;;79.28;48.53;;;;;;;;;;5093043;28;20039;-82
2021/10/28 05:01:37;;;;;;;41.95;30.08;;;;;;;;;;5093927;28;20073;-83
2021/10/28 05:04:03;;;;;;;95.30;57.30;;;;;;;;;;5093937;28;20390;-84
2021/10/28 05:06:29;;;;;;;52.10;36.28;;;;;;;;;;5093663;28;20103;-83
2021/10/28 05:08:56;;;;;;;47.92;33.83;;;;;;;;;;5093452;28;20020;-82
2021/10/28 05:11:24;;;;;;;43.60;31.23;;;;;;;;;;5093954;28;20394;-69
2021/10/28 05:13:52;;;;;;;71.75;45.45;;;;;;;;;;5093601;28;20012;-85
2021/10/28 05:16:18;;;;;;;70.25;43.95;;;;;;;;;;5093665;28;20027;-82
2021/10/28 05:18:45;;;;;;;77.43;51.00;;;;;;;;;;5093450;28;20050;-81
2021/10/28 05:21:12;;;;;;;88.80;58.10;;;;;;;;;;5089761;28;20121;-79
2021/10/28 05:23:39;;;;;;;80.43;50.67;;;;;;;;;;5091296;28;20499;-81
2021/10/28 05:26:05;;;;;;;78.13;50.40;;;;;;;;;;5092115;28;20035;-81
2021/10/28 05:28:32;;;;;;;94.15;67.93;;;;;;;;;;5090473;28;20032;-80
2021/10/28 05:30:58;;;;;;;103.93;68.15;;;;;;;;;;5091400;28;20486;-81
2021/10/28 05:33:24;;;;;;;92.60;65.60;;;;;;;;;;5090047;28;20024;-75
2021/10/28 05:35:50;;;;;;;81.60;58.88;;;;;;;;;;5089928;28;20375;-78
2021/10/28 05:38:17;;;;;;;74.60;52.90;;;;;;;;;;5080907;28;20086;-80
2021/10/28 05:40:46;;;;;;;75.28;51.45;;;;;;;;;;5083529;28;20024;-80
2021/10/28 05:43:12;;;;;;;78.95;52.55;;;;;;;;;;5084685;28;20682;-84
2021/10/28 05:45:39;;;;;;;75.25;49.55;;;;;;;;;;5089879;28;20066;-82
2021/10/28 05:48:08;;;;;;;87.97;52.60;;;;;;;;;;5081458;28;20020;-81
2021/10/28 05:50:43;;;;;;;83.18;57.30;;;;;;;;;;5082512;28;20099;-80
2021/10/28 05:53:10;;;;;;;76.53;52.65;;;;;;;;;;5082022;28;20016;-80
2021/10/28 05:55:37;;;;;;;76.05;54.75;;;;;;;;;;5079748;28;20020;-84
2021/10/28 05:58:03;;;;;;;64.65;45.88;;;;;;;;;;5081945;28;20020;-87
2021/10/28 06:00:39;;;;;;;63.47;44.47;;;;;;;;;;5081530;28;20591;-83
2021/10/28 06:03:15;;;;;;;63.35;46.47;;;;;;;;;;5081621;28;20623;-84
2021/10/28 06:05:41;;;;;;;72.70;51.10;;;;;;;;;;5082729;28;20020;-85
2021/10/28 06:08:09;;;;;;;71.80;51.75;;;;;;;;;;5083574;28;20390;-82
2021/10/28 06:10:39;;;;;;;85.72;60.85;;;;;;;;;;5093780;28;20091;-83
2021/10/28 06:13:07;;;;;;;98.18;68.82;;;;;;;;;;5083240;28;20017;-81
2021/10/28 06:18:49;;;;;;;107.68;75.35;;;;;;;;;;5006517;28;20024;-83
2021/10/28 06:21:38;;;;;;;;;;;;;;;;;;;;;
2021/10/28 06:24:08;;;;;;;104.30;73.45;;;;;;;;;;5094874;28;20036;-83
2021/10/28 06:26:34;;;;;;;110.07;74.63;;;;;;;;;;5090271;28;20020;-82
2021/10/28 06:29:00;;;;;;;106.95;79.18;;;;;;;;;;5093903;28;20063;-82
2021/10/28 06:31:26;;;;;;;124.57;86.43;;;;;;;;;;5095103;28;20518;-83
2021/10/28 06:34:02;;;;;;;159.35;103.60;;;;;;;;;;5093240;28;20052;-82
2021/10/28 06:36:35;;;;;;;181.82;127.78;;;;;;;;;;5095133;28;20059;-80
2021/10/28 06:39:04;;;;;;;174.10;120.32;;;;;;;;;;5095161;28;20371;-85
2021/10/28 06:41:31;;;;;;;165.65;109.78;;;;;;;;;;5097604;28;20024;-84
2021/10/28 06:43:59;;;;;;;152.85;102.40;;;;;;;;;;5094331;28;20078;-84
2021/10/28 06:46:26;;;;;;;150.82;101.47;;;;;;;;;;5095332;28;20542;-84
2021/10/28 06:48:52;;;;;;;156.48;104.68;;;;;;;;;;5093223;28;20123;-82
2021/10/28 06:51:19;;;;;;;131.50;90.07;;;;;;;;;;5094378;28;20031;-79
2021/10/28 07:04:57;;;;;;;56.00;43.92;;;;;;;;;;5075270;28;20099;-83
2021/10/28 07:07:24;;;;;;;50.17;36.53;;;;;;;;;;5081535;28;20414;-83
2021/10/28 07:10:01;;;;;;;47.40;35.15;;;;;;;;;;5077854;28;20028;-82
2021/10/28 07:15:01;;;;;;;42.50;31.23;;;;;;;;;;5094367;28;20109;-83
2021/10/28 07:57:58;;;;;;;40.45;23.02;;;;;;;;;;4991746;28;20486;-82
2021/10/28 08:22:20;;;;;;;36.65;27.73;;;;;;;;;;5084834;28;20408;-84
2021/10/28 08:30:28;;;;;;;34.05;22.88;;;;;;;;;;5092555;28;20039;-81
2021/10/28 08:32:59;;;;;;;30.67;22.38;;;;;;;;;;5092826;28;20095;-81
2021/10/28 08:53:51;;;;;;;26.40;22.10;;;;;;;;;;4992776;28;20026;-81
2021/10/28 09:24:47;;;;;;;24.92;20.27;;;;;;;;;;5092493;28;20540;-81
2021/10/28 09:27:17;;;;;;;27.52;21.15;;;;;;;;;;5091988;28;20046;-80
2021/10/28 09:44:21;;;;;;;23.33;18.75;;;;;;;;;;5091934;28;20027;-80
2021/10/28 09:47:06;;;;;;;23.75;18.30;;;;;;;;;;5095734;28;20028;-79
2021/10/28 09:52:29;;;;;;;18.33;15.32;;;;;;;;;;5076155;28;20067;-82
2021/10/28 09:57:36;;;;;;;21.02;16.85;;;;;;;;;;5095756;28;20421;-81
2021/10/28 10:00:14;;;;;;;22.30;14.95;;;;;;;;;;5075408;28;20078;-83
2021/10/28 10:02:50;;;;;;;16.15;14.10;;;;;;;;;;5075941;28;20031;-85
2021/10/28 10:05:19;;;;;;;21.67;18.50;;;;;;;;;;5094372;28;20552;-82
2021/10/28 10:07:49;;;;;;;18.90;15.10;;;;;;;;;;5089434;28;20033;-82
2021/10/28 10:10:19;;;;;;;20.42;15.82;;;;;;;;;;5085322;28;20078;-82
2021/10/28 10:12:48;;;;;;;18.85;14.10;;;;;;;;;;5089254;28;20031;-80
2021/10/28 10:15:20;;;;;;;21.48;14.70;;;;;;;;;;5088376;28;20062;-79
2021/10/28 10:17:53;;;;;;;31.92;20.80;;;;;;;;;;5092306;28;20059;-81
2021/10/28 10:20:21;;;;;;;22.67;17.58;;;;;;;;;;5086429;28;20503;-84
2021/10/28 10:22:57;;;;;;;20.42;17.58;;;;;;;;;;5095154;28;20102;-82
2021/10/28 10:25:35;;;;;;;19.10;15.75;;;;;;;;;;5091975;28;20016;-81
2021/10/28 12:44:43;;;;;;;22.55;16.17;;;;;;;;;;5076759;28;20047;-85
2021/10/28 12:53:13;;;;;;;18.48;12.88;;;;;;;;;;5073433;28;20039;-85
2021/10/28 12:56:07;;;;;;;13.65;10.20;;;;;;;;;;5080118;28;20055;-85
2021/10/28 13:53:35;;;;;;;8.80;7.90;;;;;;;;;;5080078;28;20020;-81
2021/10/28 15:39:08;;;;;;;37.10;27.55;;;;;;;;;;5095851;28;20072;-82
2021/10/28 15:42:02;;;;;;;45.72;31.20;;;;;;;;;;5095128;28;20412;-84
2021/10/28 16:22:15;;;;;;;63.30;48.42;;;;;;;;;;5075882;28;20043;-81
2021/10/28 16:24:41;;;;;;;77.55;51.28;;;;;;;;;;5090763;28;20103;-82
2021/10/28 16:27:07;;;;;;;75.55;53.80;;;;;;;;;;5096025;28;20107;-82
2021/10/28 16:32:39;;;;;;;;;;;;;;;;;;;;;
2021/10/28 16:35:36;;;;;;;;;;;;;;;;;;;;;
2021/10/28 16:38:04;;;;;;;59.55;43.85;;;;;;;;;;5074656;28;20040;-83
2021/10/28 16:40:30;;;;;;;70.20;49.75;;;;;;;;;;5074134;28;20044;-81
2021/10/28 16:42:59;;;;;;;55.53;41.42;;;;;;;;;;5074371;28;20507;-82
2021/10/28 16:45:25;;;;;;;43.50;35.10;;;;;;;;;;5083234;28;20024;-80
2021/10/28 16:47:52;;;;;;;71.38;54.33;;;;;;;;;;5084459;28;20036;-82
2021/10/28 16:50:49;;;;;;;74.47;57.35;;;;;;;;;;5087122;28;20032;-81
2021/10/28 16:59:47;;;;;;;;;;;;;;;;;;;;;
2021/10/28 17:11:34;;;;;;;64.78;48.50;;;;;;;;;;4993767;28;20081;-83
2021/10/28 17:17:31;;;;;;;;;;;;;;;;;;;;;
2021/10/28 17:20:05;;;;;;;59.42;44.65;;;;;;;;;;5025804;28;20045;-82
2021/10/28 17:22:31;;;;;;;63.53;48.17;;;;;;;;;;5030312;28;20038;-83
2021/10/28 17:25:02;;;;;;;63.58;47.90;;;;;;;;;;5014012;28;20422;-83
2021/10/28 17:27:28;;;;;;;85.75;74.32;;;;;;;;;;5034041;28;20100;-79
2021/10/28 17:29:55;;;;;;;82.63;73.88;;;;;;;;;;5071978;28;20095;-80
2021/10/28 17:32:23;;;;;;;68.22;58.65;;;;;;;;;;5072980;28;20021;-80
2021/10/28 17:34:49;;;;;;;71.30;58.28;;;;;;;;;;5091088;28;20479;-81
2021/10/28 17:37:15;;;;;;;82.30;67.95;;;;;;;;;;5092609;28;20028;-81
2021/10/28 17:39:42;;;;;;;100.18;76.25;;;;;;;;;;5094031;28;20050;-81
2021/10/28 17:42:09;;;;;;;93.63;72.00;;;;;;;;;;5093669;28;20059;-80
2021/10/28 17:44:38;;;;;;;62.35;51.17;;;;;;;;;;5097559;28;20379;-80
2021/10/28 17:47:05;;;;;;;41.85;34.78;;;;;;;;;;5073321;28;20044;-80
2021/10/28 17:49:31;;;;;;;43.60;35.67;;;;;;;;;;5073994;28;20472;-81
2021/10/28 17:52:00;;;;;;;53.90;43.67;;;;;;;;;;5084319;28;20035;-81
2021/10/28 17:54:26;;;;;;;38.88;32.63;;;;;;;;;;5104468;28;20027;-81
2021/10/28 17:56:52;;;;;;;27.55;23.10;;;;;;;;;;5094317;28;20103;-81
2021/10/28 17:59:18;;;;;;;31.15;27.08;;;;;;;;;;5089172;28;20373;-82
2021/10/28 18:01:44;;;;;;;38.63;29.85;;;;;;;;;;5072289;28;20089;-81
2021/10/28 18:04:11;;;;;;;38.28;28.05;;;;;;;;;;5073376;28;20170;-80
2021/10/28 18:06:37;;;;;;;36.55;26.95;;;;;;;;;;5076052;28;20034;-80
2021/10/28 18:09:05;;;;;;;33.70;26.98;;;;;;;;;;5076892;28;20467;-82
2021/10/28 18:11:31;;;;;;;35.13;31.35;;;;;;;;;;5076107;28;20023;-80
2021/10/28 18:13:58;;;;;;;39.47;30.80;;;;;;;;;;5077336;28;20024;-79
2021/10/28 18:16:25;;;;;;;49.60;40.38;;;;;;;;;;5077161;28;20016;-82
2021/10/28 18:19:10;;;;;;;54.55;43.70;;;;;;;;;;5077058;28;20021;-80
2021/10/28 18:21:41;;;;;;;;;;;;;;;;;;5077202;28;20130;-80
2021/10/28 18:24:07;;;;;;;86.82;68.82;;;;;;;;;;5077106;28;19995;-82
2021/10/28 18:26:34;;;;;;;96.20;77.13;;;;;;;;;;5075608;28;20085;-80
2021/10/28 18:29:00;;;;;;;71.03;57.05;;;;;;;;;;5076561;28;20025;-81
2021/10/28 18:31:28;;;;;;;60.15;48.08;;;;;;;;;;5076715;28;20028;-79
2021/10/28 18:33:57;;;;;;;58.03;46.72;;;;;;;;;;5076870;28;20020;-79
2021/10/28 18:36:30;;;;;;;49.42;38.97;;;;;;;;;;5074975;28;20025;-80
2021/10/28 18:39:26;;;;;;;;;;;;;;;;;;;;;
2021/10/28 18:44:41;;;;;;;42.75;34.63;;;;;;;;;;5044398;28;20024;-81
2021/10/28 18:47:08;;;;;;;54.35;43.17;;;;;;;;;;5076210;28;20391;-80
2021/10/28 18:49:40;;;;;;;59.20;48.72;;;;;;;;;;5076137;28;20021;-81
2021/10/28 18:52:06;;;;;;;57.22;45.58;;;;;;;;;;5076101;28;20074;-82
2021/10/28 18:54:33;;;;;;;56.15;46.45;;;;;;;;;;5075007;28;20438;-82
2021/10/28 18:56:59;;;;;;;62.22;48.67;;;;;;;;;;5075871;28;20383;-81
2021/10/28 18:59:26;;;;;;;55.53;45.78;;;;;;;;;;5075801;28;20036;-81
2021/10/28 19:01:55;;;;;;;55.72;47.50;;;;;;;;;;5075967;28;20016;-81
2021/10/28 19:04:23;;;;;;;69.20;54.08;;;;;;;;;;5075884;28;20476;-82
2021/10/28 19:06:51;;;;;;;77.75;63.33;;;;;;;;;;5074579;28;20024;-79
2021/10/28 19:09:22;;;;;;;88.57;65.72;;;;;;;;;;5075751;28;20107;-81
2021/10/28 19:11:49;;;;;;;67.53;51.05;;;;;;;;;;5074720;28;20021;-81
2021/10/28 19:14:17;;;;;;;58.28;44.28;;;;;;;;;;5074842;28;20020;-80
2021/10/28 19:16:45;;;;;;;52.58;39.83;;;;;;;;;;5073690;28;20138;-80
2021/10/28 19:19:12;;;;;;;40.10;32.15;;;;;;;;;;5074004;28;20036;-82
2021/10/28 19:21:45;;;;;;;41.45;34.40;;;;;;;;;;5074130;28;20049;-81
2021/10/28 19:24:14;;;;;;;43.10;34.67;;;;;;;;;;5075567;28;20051;-81
2021/10/28 19:26:40;;;;;;;49.58;39.22;;;;;;;;;;5074513;28;20040;-81
2021/10/28 19:29:19;;;;;;;;;;;;;;;;;;;;;
2021/10/28 19:31:59;;;;;;;62.33;47.88;;;;;;;;;;5075440;28;20378;-82
2021/10/28 19:34:32;;;;;;;64.57;48.83;;;;;;;;;;5075490;28;20044;-81
2021/10/28 19:47:28;;;;;;;67.95;52.13;;;;;;;;;;5075191;28;20059;-80
2021/10/28 19:49:56;;;;;;;88.18;71.07;;;;;;;;;;5075155;28;20056;-82
2021/10/28 19:52:23;;;;;;;54.40;44.92;;;;;;;;;;5075121;28;20123;-81
2021/10/28 19:54:50;;;;;;;54.30;44.45;;;;;;;;;;5075059;28;20021;-81
2021/10/28 19:57:20;;;;;;;56.08;41.80;;;;;;;;;;5075277;28;20028;-80
2021/10/28 20:05:26;;;;;;;105.72;72.63;;;;;;;;;;5075282;28;20028;-82
2021/10/28 20:13:53;;;;;;;62.97;48.28;;;;;;;;;;5074837;28;20502;-80
2021/10/28 20:21:48;;;;;;;61.72;46.50;;;;;;;;;;5074360;28;20494;-82
2021/10/28 20:24:14;;;;;;;58.25;42.47;;;;;;;;;;5074555;28;20103;-81
2021/10/28 20:30:08;;;;;;;46.85;34.55;;;;;;;;;;5073671;28;20033;-81
2021/10/28 20:35:51;;;;;;;68.78;46.30;;;;;;;;;;5012149;28;20402;-80
2021/10/28 20:38:14;;;;;;;42.08;31.27;;;;;;;;;;5012224;28;20018;-81
2021/10/28 20:40:40;;;;;;;47.53;32.60;;;;;;;;;;5044912;28;20506;-81
2021/10/28 20:43:09;;;;;;;48.10;34.67;;;;;;;;;;5074054;28;20021;-81
2021/10/28 20:45:35;;;;;;;57.25;41.53;;;;;;;;;;5072721;28;20115;-82
2021/10/28 20:48:03;;;;;;;43.83;33.45;;;;;;;;;;5073627;28;20032;-81
2021/10/28 20:50:32;;;;;;;39.85;32.92;;;;;;;;;;5073797;28;20468;-80
2021/10/28 20:53:00;;;;;;;41.50;33.05;;;;;;;;;;5073852;28;20357;-80
2021/10/28 20:55:29;;;;;;;52.28;39.25;;;;;;;;;;5072502;28;20051;-83
2021/10/28 20:57:55;;;;;;;91.63;64.57;;;;;;;;;;5073705;28;20021;-82
2021/10/28 21:00:25;;;;;;;73.72;55.35;;;;;;;;;;5073809;28;20103;-80
2021/10/28 21:02:51;;;;;;;155.18;101.03;;;;;;;;;;5073827;28;20032;-81
2021/10/28 21:05:22;;;;;;;100.95;70.18;;;;;;;;;;5074176;28;20403;-82
2021/10/28 21:07:49;;;;;;;101.78;73.53;;;;;;;;;;5072210;28;20020;-80
2021/10/28 21:10:17;;;;;;;86.53;62.83;;;;;;;;;;5073510;28;20020;-80
2021/10/28 21:12:43;;;;;;;72.70;53.33;;;;;;;;;;5073616;28;20047;-80
2021/10/28 21:15:18;;;;;;;65.88;51.85;;;;;;;;;;5073545;28;20393;-82
2021/10/28 21:17:46;;;;;;;55.97;44.40;;;;;;;;;;5073631;28;20103;-80
2021/10/28 21:21:03;;;;;;;;;;;;;;;;;;;;;
2021/10/28 21:26:43;;;;;;;48.58;35.10;;;;;;;;;;5042057;28;20081;-81
2021/10/28 21:29:09;;;;;;;40.03;31.17;;;;;;;;;;5073482;28;20590;-82
2021/10/28 21:31:35;;;;;;;41.20;31.77;;;;;;;;;;5072336;28;20024;-80
2021/10/28 21:34:01;;;;;;;33.70;27.35;;;;;;;;;;5073661;28;20052;-80
2021/10/28 21:36:28;;;;;;;63.72;46.90;;;;;;;;;;5072045;28;20453;-81
2021/10/28 21:38:54;;;;;;;60.60;44.97;;;;;;;;;;5071966;28;20395;-82
2021/10/28 21:41:20;;;;;;;77.55;52.30;;;;;;;;;;5075506;28;20029;-82
2021/10/28 21:43:49;;;;;;;68.70;49.95;;;;;;;;;;5075926;28;20030;-80
2021/10/28 21:46:17;;;;;;;53.33;35.08;;;;;;;;;;5077363;28;20052;-83
2021/10/28 21:48:43;;;;;;;40.20;33.53;;;;;;;;;;5077535;28;20029;-79
2021/10/28 21:51:09;;;;;;;34.42;26.17;;;;;;;;;;5077790;28;20028;-79
2021/10/28 21:53:39;;;;;;;27.77;22.52;;;;;;;;;;5077331;28;20472;-79
2021/10/28 21:56:17;;;;;;;23.23;18.48;;;;;;;;;;5077266;28;20021;-80
2021/10/28 22:26:05;;;;;;;29.65;22.48;;;;;;;;;;5076657;28;20067;-81
2021/10/28 22:28:32;;;;;;;25.13;20.15;;;;;;;;;;5076392;28;20016;-82
2021/10/28 22:30:58;;;;;;;25.98;20.95;;;;;;;;;;5075142;28;20487;-83
2021/10/28 22:33:24;;;;;;;27.15;21.90;;;;;;;;;;5076352;28;20073;-80
2021/10/28 22:38:17;;;;;;;55.42;35.53;;;;;;;;;;5076630;28;20020;-80
2021/10/28 22:40:51;;;;;;;66.50;40.58;;;;;;;;;;5074959;28;20025;-82
2021/10/28 22:43:18;;;;;;;60.00;37.43;;;;;;;;;;5076429;28;20024;-82
2021/10/28 22:45:45;;;;;;;40.13;28.88;;;;;;;;;;5074747;28;20090;-81
2021/10/28 22:48:14;;;;;;;45.10;32.55;;;;;;;;;;5076281;28;20395;-81
2021/10/28 22:50:41;;;;;;;37.00;29.98;;;;;;;;;;5076100;28;20047;-83
2021/10/28 22:53:08;;;;;;;43.80;30.88;;;;;;;;;;5076070;28;20047;-82
2021/10/28 22:55:40;;;;;;;38.20;27.45;;;;;;;;;;5075958;28;20116;-81
2021/10/28 22:58:15;;;;;;;38.00;29.08;;;;;;;;;;5075903;28;20500;-81
2021/10/28 23:00:50;;;;;;;34.03;25.90;;;;;;;;;;5076025;28;20028;-80
2021/10/28 23:08:51;;;;;;;30.63;23.08;;;;;;;;;;5076188;28;20048;-80
2021/10/28 23:11:43;;;;;;;25.98;20.90;;;;;;;;;;5075769;28;20021;-81
2021/10/28 23:16:51;;;;;;;33.92;24.77;;;;;;;;;;5075771;28;20032;-82
2021/10/28 23:22:02;;;;;;;33.22;24.48;;;;;;;;;;5075727;28;20090;-80
2021/10/28 23:24:28;;;;;;;30.85;22.80;;;;;;;;;;5075736;28;20020;-82
2021/10/28 23:26:56;;;;;;;26.65;20.60;;;;;;;;;;5075341;28;20048;-83
2021/10/28 23:29:22;;;;;;;34.40;26.15;;;;;;;;;;5075510;28;20573;-81
2021/10/28 23:31:49;;;;;;;34.40;26.05;;;;;;;;;;5075534;28;20456;-80
2021/10/28 23:34:15;;;;;;;31.85;23.08;;;;;;;;;;5074328;28;20021;-82
2021/10/28 23:36:43;;;;;;;38.15;27.50;;;;;;;;;;5073955;28;20017;-81
2021/10/28 23:39:11;;;;;;;30.05;22.23;;;;;;;;;;5075405;28;20088;-82
2021/10/28 23:41:38;;;;;;;29.83;23.55;;;;;;;;;;5075195;28;20024;-82
2021/10/28 23:44:05;;;;;;;29.23;22.38;;;;;;;;;;5075022;28;20033;-79
2021/10/28 23:46:31;;;;;;;29.00;22.52;;;;;;;;;;5075012;28;20081;-80
2021/10/28 23:48:59;;;;;;;29.45;23.95;;;;;;;;;;5075084;28;20111;-80
2021/10/28 23:51:28;;;;;;;34.88;27.75;;;;;;;;;;5075186;28;20485;-81
2021/10/28 23:53:54;;;;;;;34.25;26.40;;;;;;;;;;5075107;28;20052;-81
2021/10/28 23:56:23;;;;;;;41.72;31.05;;;;;;;;;;5075001;28;20050;-81
2021/10/28 23:58:49;;;;;;;35.17;26.67;;;;;;;;;;5075024;28;20031;-81
